Cheatham Observed Data For Previous 48 Hours

Caption
Day and Hour Reservoir Elevation (behind dam)* Tailwater Elevation (below dam)* Average Hourly Discharge*
11/11/2018 1 AM CST 385.90 362.79 25,570
11/11/2018 2 AM CST 385.97 362.80 25,570
11/11/2018 3 AM CST 386.04 362.81 25,570
11/11/2018 4 AM CST 386.11 362.82 25,570
11/11/2018 5 AM CST 386.18 362.83 25,570
11/11/2018 6 AM CST 386.20 362.84 25,570
11/11/2018 7 AM CST 386.25 362.90 25,270
11/11/2018 8 AM CST 386.02 363.02 27,850
11/11/2018 9 AM CST - 999.00 - 999.00 31,770
11/11/2018 10 AM CST 385.92 363.49 31,470
11/11/2018 11 AM CST 385.88 363.64 31,570
11/11/2018 12 PM CST 385.84 363.77 31,570
11/11/2018 1 PM CST 385.82 363.77 31,200
11/11/2018 2 PM CST 385.80 363.77 31,200
11/11/2018 3 PM CST 385.78 363.77 31,200
11/11/2018 4 PM CST 385.75 363.77 31,200
11/11/2018 5 PM CST 385.73 363.77 31,200
11/11/2018 6 PM CST 385.71 363.77 31,200
11/11/2018 7 PM CST 385.69 363.98 30,400
11/11/2018 8 PM CST 385.66 364.02 30,400
11/11/2018 9 PM CST 385.62 364.02 30,400
11/11/2018 10 PM CST 385.59 364.02 31,200
11/11/2018 11 PM CST 385.58 364.04 31,200
11/12/2018 12 AM CST 385.52 364.04 31,200
11/12/2018 1 AM CST 385.51 364.07 31,000
11/12/2018 2 AM CST 385.54 364.10 31,000
11/12/2018 3 AM CST 385.43 364.09 31,000
11/12/2018 4 AM CST 385.46 364.08 31,000
11/12/2018 5 AM CST 385.41 364.07 31,000
11/12/2018 6 AM CST 385.37 364.08 31,000
11/12/2018 7 AM CST 385.29 364.08 31,950
11/12/2018 8 AM CST 385.20 364.07 31,950
11/12/2018 9 AM CST 385.20 364.06 31,350
11/12/2018 10 AM CST 385.12 364.05 31,350
11/12/2018 11 AM CST 385.12 364.05 31,350
11/12/2018 12 PM CST 385.12 364.05 31,350
11/12/2018 1 PM CST 385.05 364.10 30,660
11/12/2018 2 PM CST 385.05 364.08 30,660
11/12/2018 3 PM CST 385.07 364.09 30,660
11/12/2018 4 PM CST 385.08 364.10 30,660
11/12/2018 5 PM CST 385.08 364.10 30,660
11/12/2018 6 PM CST 385.08 364.11 30,660
11/12/2018 7 PM CST 385.11 364.12 30,700
11/12/2018 8 PM CST 385.14 364.13 30,700
11/12/2018 9 PM CST 385.16 364.14 30,700
11/12/2018 10 PM CST 385.17 364.14 30,700
11/12/2018 11 PM CST 385.17 364.14 30,700
11/13/2018 12 AM CST 385.17 364.14 30,700
11/13/2018 1 AM CST 385.24 364.17 30,700
11/13/2018 2 AM CST 385.24 364.19 30,700
11/13/2018 3 AM CST 385.21 364.20 30,700
11/13/2018 4 AM CST 385.20 364.21 30,700
11/13/2018 5 AM CST 385.18 364.21 30,700
11/13/2018 6 AM CST 385.16 364.20 30,700
11/13/2018 7 AM CST 385.13 364.20 30,700
11/13/2018 8 AM CST 385.08 364.22 30,700
11/13/2018 9 AM CST 385.04 364.22 30,700

Elevations are in feet above sea level. Discharges are in cubic feet per second and are reported at the end of the hour.